Bolton Outlanes, United Kingdom
Current Conditions -  °F | °C
As of 9:50 AM on Friday 28 Nov 2014 (Local Time) from EGNM Reporting Station
Drizzle Drizzle  
Wind Chill: 43°   Ceiling: Unl
Heat Index: 46°   Visibility: 0.06mi
Dew Point: 46°   Wind: 7mph
Humidity: 100%   Direction: 70°ENE
Pressure: 29.71"   Gusts: NA
Location:  53.81°N, 1.76°W
Report Text: EGNM 280950Z 07006KT 020V100 0100 R32/0250 -DZ FG VV/// 08/08 Q1006
Loading
Personal Weather Stations






























Interactive Weather Map New forecast layout! Learn more

10-Day Weather Forecast

Advertisements
Track Severe Weather on mobile